sensor_id;sensor_type;location;lat;lon;timestamp;P1;durP1;ratioP1;P2;durP2;ratioP2
13743;SDS011;6943;52.368;9.966;2022-08-03T00:01:15;4.47;;;3.63;;
13743;SDS011;6943;52.368;9.966;2022-08-03T00:03:41;5.97;;;3.93;;
13743;SDS011;6943;52.368;9.966;2022-08-03T00:06:07;4.43;;;3.63;;
13743;SDS011;6943;52.368;9.966;2022-08-03T00:08:32;5.93;;;3.90;;
13743;SDS011;6943;52.368;9.966;2022-08-03T00:10:58;5.40;;;4.27;;
13743;SDS011;6943;52.368;9.966;2022-08-03T00:13:24;6.50;;;3.90;;
13743;SDS011;6943;52.368;9.966;2022-08-03T00:15:49;5.20;;;4.20;;
13743;SDS011;6943;52.368;9.966;2022-08-03T00:18:15;4.63;;;4.07;;
13743;SDS011;6943;52.368;9.966;2022-08-03T00:20:40;4.50;;;3.97;;
13743;SDS011;6943;52.368;9.966;2022-08-03T00:23:06;4.43;;;4.03;;
13743;SDS011;6943;52.368;9.966;2022-08-03T00:25:32;4.80;;;4.00;;
13743;SDS011;6943;52.368;9.966;2022-08-03T00:28:02;5.97;;;4.40;;
13743;SDS011;6943;52.368;9.966;2022-08-03T00:30:29;4.60;;;4.20;;
13743;SDS011;6943;52.368;9.966;2022-08-03T00:32:55;4.60;;;4.03;;
13743;SDS011;6943;52.368;9.966;2022-08-03T00:35:20;4.80;;;3.97;;
13743;SDS011;6943;52.368;9.966;2022-08-03T00:37:46;5.33;;;4.37;;
13743;SDS011;6943;52.368;9.966;2022-08-03T00:40:12;4.70;;;4.23;;
13743;SDS011;6943;52.368;9.966;2022-08-03T00:42:56;4.60;;;4.20;;
13743;SDS011;6943;52.368;9.966;2022-08-03T00:45:24;4.70;;;4.30;;
13743;SDS011;6943;52.368;9.966;2022-08-03T00:47:51;5.53;;;4.33;;
13743;SDS011;6943;52.368;9.966;2022-08-03T00:50:18;4.60;;;4.20;;
13743;SDS011;6943;52.368;9.966;2022-08-03T00:52:47;4.80;;;4.30;;
13743;SDS011;6943;52.368;9.966;2022-08-03T00:55:13;4.63;;;4.23;;
13743;SDS011;6943;52.368;9.966;2022-08-03T00:57:39;5.57;;;4.43;;
13743;SDS011;6943;52.368;9.966;2022-08-03T01:00:08;4.63;;;4.23;;
13743;SDS011;6943;52.368;9.966;2022-08-03T01:02:34;5.43;;;4.57;;
13743;SDS011;6943;52.368;9.966;2022-08-03T01:05:01;5.47;;;4.67;;
13743;SDS011;6943;52.368;9.966;2022-08-03T01:10:12;5.37;;;3.77;;
13743;SDS011;6943;52.368;9.966;2022-08-03T01:13:01;4.60;;;4.20;;
13743;SDS011;6943;52.368;9.966;2022-08-03T01:21:39;5.27;;;4.63;;
13743;SDS011;6943;52.368;9.966;2022-08-03T01:27:20;5.13;;;4.73;;
13743;SDS011;6943;52.368;9.966;2022-08-03T01:29:56;5.30;;;4.77;;
13743;SDS011;6943;52.368;9.966;2022-08-03T01:32:33;5.60;;;4.27;;
13743;SDS011;6943;52.368;9.966;2022-08-03T01:35:04;4.70;;;4.30;;
13743;SDS011;6943;52.368;9.966;2022-08-03T01:37:36;5.27;;;4.77;;
13743;SDS011;6943;52.368;9.966;2022-08-03T01:40:04;5.07;;;4.33;;
13743;SDS011;6943;52.368;9.966;2022-08-03T01:42:31;6.67;;;4.30;;
13743;SDS011;6943;52.368;9.966;2022-08-03T01:44:58;5.17;;;4.70;;
13743;SDS011;6943;52.368;9.966;2022-08-03T01:47:26;5.70;;;4.90;;
13743;SDS011;6943;52.368;9.966;2022-08-03T01:49:53;6.60;;;5.10;;
13743;SDS011;6943;52.368;9.966;2022-08-03T01:52:21;5.17;;;4.70;;
13743;SDS011;6943;52.368;9.966;2022-08-03T01:54:48;4.70;;;4.23;;
13743;SDS011;6943;52.368;9.966;2022-08-03T01:57:17;5.30;;;4.80;;
13743;SDS011;6943;52.368;9.966;2022-08-03T01:59:43;4.73;;;4.33;;
13743;SDS011;6943;52.368;9.966;2022-08-03T02:02:12;5.20;;;4.80;;
13743;SDS011;6943;52.368;9.966;2022-08-03T02:04:40;5.00;;;4.50;;
13743;SDS011;6943;52.368;9.966;2022-08-03T02:07:07;5.27;;;4.63;;
13743;SDS011;6943;52.368;9.966;2022-08-03T02:09:36;5.83;;;4.57;;
13743;SDS011;6943;52.368;9.966;2022-08-03T02:12:05;5.40;;;4.23;;
13743;SDS011;6943;52.368;9.966;2022-08-03T02:14:35;6.93;;;5.33;;
13743;SDS011;6943;52.368;9.966;2022-08-03T02:17:03;5.77;;;4.87;;
13743;SDS011;6943;52.368;9.966;2022-08-03T02:19:30;5.30;;;4.80;;
13743;SDS011;6943;52.368;9.966;2022-08-03T02:21:58;5.87;;;4.90;;
13743;SDS011;6943;52.368;9.966;2022-08-03T02:24:24;5.80;;;4.93;;
13743;SDS011;6943;52.368;9.966;2022-08-03T02:26:50;5.23;;;4.60;;
13743;SDS011;6943;52.368;9.966;2022-08-03T02:29:20;5.23;;;4.83;;
13743;SDS011;6943;52.368;9.966;2022-08-03T02:31:48;5.10;;;4.53;;
13743;SDS011;6943;52.368;9.966;2022-08-03T02:34:15;5.53;;;5.07;;
13743;SDS011;6943;52.368;9.966;2022-08-03T02:36:43;7.27;;;5.03;;
13743;SDS011;6943;52.368;9.966;2022-08-03T02:39:14;8.63;;;5.23;;
13743;SDS011;6943;52.368;9.966;2022-08-03T02:41:45;5.97;;;5.37;;
13743;SDS011;6943;52.368;9.966;2022-08-03T02:44:13;5.97;;;5.57;;
13743;SDS011;6943;52.368;9.966;2022-08-03T02:46:43;5.70;;;5.20;;
13743;SDS011;6943;52.368;9.966;2022-08-03T02:49:11;5.63;;;5.13;;
13743;SDS011;6943;52.368;9.966;2022-08-03T02:51:39;6.00;;;5.50;;
13743;SDS011;6943;52.368;9.966;2022-08-03T02:54:06;5.80;;;5.20;;
13743;SDS011;6943;52.368;9.966;2022-08-03T02:56:33;6.30;;;5.63;;
13743;SDS011;6943;52.368;9.966;2022-08-03T02:59:00;5.73;;;5.33;;
13743;SDS011;6943;52.368;9.966;2022-08-03T03:01:26;5.73;;;5.23;;
13743;SDS011;6943;52.368;9.966;2022-08-03T03:03:55;5.63;;;5.13;;
13743;SDS011;6943;52.368;9.966;2022-08-03T03:06:22;5.13;;;4.70;;
13743;SDS011;6943;52.368;9.966;2022-08-03T03:08:50;6.03;;;5.43;;
13743;SDS011;6943;52.368;9.966;2022-08-03T03:11:17;5.97;;;5.47;;
13743;SDS011;6943;52.368;9.966;2022-08-03T03:13:44;5.33;;;4.90;;
13743;SDS011;6943;52.368;9.966;2022-08-03T03:16:12;7.07;;;5.40;;
13743;SDS011;6943;52.368;9.966;2022-08-03T03:18:38;6.10;;;5.53;;
13743;SDS011;6943;52.368;9.966;2022-08-03T03:21:04;6.00;;;5.40;;
13743;SDS011;6943;52.368;9.966;2022-08-03T03:23:32;7.30;;;5.30;;
13743;SDS011;6943;52.368;9.966;2022-08-03T03:26:01;5.93;;;5.40;;
13743;SDS011;6943;52.368;9.966;2022-08-03T03:28:27;5.43;;;5.03;;
13743;SDS011;6943;52.368;9.966;2022-08-03T03:30:54;5.53;;;5.00;;
13743;SDS011;6943;52.368;9.966;2022-08-03T03:33:20;6.43;;;5.23;;
13743;SDS011;6943;52.368;9.966;2022-08-03T03:35:46;6.23;;;5.13;;
13743;SDS011;6943;52.368;9.966;2022-08-03T03:38:12;5.63;;;5.13;;
13743;SDS011;6943;52.368;9.966;2022-08-03T03:40:38;7.03;;;5.20;;
13743;SDS011;6943;52.368;9.966;2022-08-03T03:43:07;5.30;;;4.80;;
13743;SDS011;6943;52.368;9.966;2022-08-03T03:45:33;5.63;;;5.13;;
13743;SDS011;6943;52.368;9.966;2022-08-03T03:48:03;5.80;;;5.00;;
13743;SDS011;6943;52.368;9.966;2022-08-03T03:50:30;10.77;;;5.40;;
13743;SDS011;6943;52.368;9.966;2022-08-03T03:52:56;6.33;;;5.40;;
13743;SDS011;6943;52.368;9.966;2022-08-03T03:55:22;5.67;;;5.27;;
13743;SDS011;6943;52.368;9.966;2022-08-03T03:57:48;5.53;;;4.57;;
13743;SDS011;6943;52.368;9.966;2022-08-03T04:00:14;5.67;;;5.17;;
13743;SDS011;6943;52.368;9.966;2022-08-03T04:02:41;6.00;;;5.40;;
13743;SDS011;6943;52.368;9.966;2022-08-03T04:05:08;6.47;;;5.83;;
13743;SDS011;6943;52.368;9.966;2022-08-03T04:08:03;6.87;;;5.63;;
13743;SDS011;6943;52.368;9.966;2022-08-03T04:16:17;4.63;;;4.23;;
13743;SDS011;6943;52.368;9.966;2022-08-03T04:18:45;5.47;;;4.33;;
13743;SDS011;6943;52.368;9.966;2022-08-03T04:21:15;6.77;;;4.13;;
13743;SDS011;6943;52.368;9.966;2022-08-03T04:23:43;3.97;;;3.67;;
13743;SDS011;6943;52.368;9.966;2022-08-03T04:26:12;3.90;;;3.60;;
13743;SDS011;6943;52.368;9.966;2022-08-03T04:28:42;4.10;;;3.70;;
13743;SDS011;6943;52.368;9.966;2022-08-03T04:31:10;4.97;;;4.40;;
13743;SDS011;6943;52.368;9.966;2022-08-03T04:33:37;4.50;;;3.80;;
13743;SDS011;6943;52.368;9.966;2022-08-03T04:36:04;7.15;;;3.70;;
13743;SDS011;6943;52.368;9.966;2022-08-03T04:38:32;5.63;;;3.53;;
13743;SDS011;6943;52.368;9.966;2022-08-03T04:41:03;6.65;;;3.60;;
13743;SDS011;6943;52.368;9.966;2022-08-03T04:43:30;3.78;;;3.47;;
13743;SDS011;6943;52.368;9.966;2022-08-03T04:45:58;4.05;;;3.65;;
13743;SDS011;6943;52.368;9.966;2022-08-03T04:48:24;3.90;;;3.60;;
13743;SDS011;6943;52.368;9.966;2022-08-03T04:50:50;3.95;;;3.65;;
13743;SDS011;6943;52.368;9.966;2022-08-03T04:53:17;3.50;;;3.20;;
13743;SDS011;6943;52.368;9.966;2022-08-03T04:55:42;5.45;;;3.47;;
13743;SDS011;6943;52.368;9.966;2022-08-03T04:58:08;4.85;;;3.33;;
13743;SDS011;6943;52.368;9.966;2022-08-03T05:00:33;3.78;;;3.42;;
13743;SDS011;6943;52.368;9.966;2022-08-03T05:02:59;8.85;;;3.20;;
13743;SDS011;6943;52.368;9.966;2022-08-03T05:05:24;3.38;;;2.97;;
13743;SDS011;6943;52.368;9.966;2022-08-03T05:07:50;3.35;;;3.13;;
13743;SDS011;6943;52.368;9.966;2022-08-03T05:10:15;3.13;;;2.83;;
13743;SDS011;6943;52.368;9.966;2022-08-03T05:12:41;3.13;;;2.67;;
13743;SDS011;6943;52.368;9.966;2022-08-03T05:15:07;3.03;;;2.78;;
13743;SDS011;6943;52.368;9.966;2022-08-03T05:17:33;5.80;;;2.63;;
13743;SDS011;6943;52.368;9.966;2022-08-03T05:19:59;2.90;;;2.70;;
13743;SDS011;6943;52.368;9.966;2022-08-03T05:22:25;3.30;;;2.63;;
13743;SDS011;6943;52.368;9.966;2022-08-03T05:24:50;4.93;;;3.03;;
13743;SDS011;6943;52.368;9.966;2022-08-03T05:27:16;5.32;;;2.40;;
13743;SDS011;6943;52.368;9.966;2022-08-03T05:29:43;3.72;;;2.63;;
13743;SDS011;6943;52.368;9.966;2022-08-03T05:32:10;5.10;;;2.88;;
13743;SDS011;6943;52.368;9.966;2022-08-03T05:34:35;4.00;;;2.47;;
13743;SDS011;6943;52.368;9.966;2022-08-03T05:37:01;4.05;;;2.58;;
13743;SDS011;6943;52.368;9.966;2022-08-03T05:39:26;4.97;;;2.65;;
13743;SDS011;6943;52.368;9.966;2022-08-03T05:41:52;3.67;;;2.50;;
13743;SDS011;6943;52.368;9.966;2022-08-03T05:44:17;2.97;;;2.75;;
13743;SDS011;6943;52.368;9.966;2022-08-03T05:46:43;5.53;;;2.97;;
13743;SDS011;6943;52.368;9.966;2022-08-03T05:49:08;4.40;;;2.63;;
13743;SDS011;6943;52.368;9.966;2022-08-03T05:51:34;2.42;;;2.22;;
13743;SDS011;6943;52.368;9.966;2022-08-03T05:54:01;2.83;;;2.63;;
13743;SDS011;6943;52.368;9.966;2022-08-03T05:56:26;3.45;;;2.42;;
13743;SDS011;6943;52.368;9.966;2022-08-03T05:58:52;3.58;;;2.80;;
13743;SDS011;6943;52.368;9.966;2022-08-03T06:01:18;3.13;;;2.83;;
13743;SDS011;6943;52.368;9.966;2022-08-03T06:03:45;3.45;;;2.67;;
13743;SDS011;6943;52.368;9.966;2022-08-03T06:06:11;3.92;;;2.70;;
13743;SDS011;6943;52.368;9.966;2022-08-03T06:08:37;4.53;;;2.70;;
13743;SDS011;6943;52.368;9.966;2022-08-03T06:11:03;2.53;;;2.15;;
13743;SDS011;6943;52.368;9.966;2022-08-03T06:13:29;4.53;;;2.17;;
13743;SDS011;6943;52.368;9.966;2022-08-03T06:15:55;2.78;;;2.03;;
13743;SDS011;6943;52.368;9.966;2022-08-03T06:18:20;2.40;;;2.20;;
13743;SDS011;6943;52.368;9.966;2022-08-03T06:20:46;4.72;;;2.40;;
13743;SDS011;6943;52.368;9.966;2022-08-03T06:23:11;6.28;;;2.00;;
13743;SDS011;6943;52.368;9.966;2022-08-03T06:25:37;2.58;;;2.00;;
13743;SDS011;6943;52.368;9.966;2022-08-03T06:28:02;4.28;;;2.45;;
13743;SDS011;6943;52.368;9.966;2022-08-03T06:30:29;2.50;;;2.08;;
13743;SDS011;6943;52.368;9.966;2022-08-03T06:32:55;3.28;;;2.17;;
13743;SDS011;6943;52.368;9.966;2022-08-03T06:35:20;3.10;;;2.10;;
13743;SDS011;6943;52.368;9.966;2022-08-03T06:37:47;2.75;;;2.40;;
13743;SDS011;6943;52.368;9.966;2022-08-03T06:40:14;2.42;;;2.22;;
13743;SDS011;6943;52.368;9.966;2022-08-03T06:42:43;3.53;;;2.38;;
13743;SDS011;6943;52.368;9.966;2022-08-03T06:45:10;2.42;;;2.00;;
13743;SDS011;6943;52.368;9.966;2022-08-03T06:47:36;4.28;;;2.33;;
13743;SDS011;6943;52.368;9.966;2022-08-03T06:50:03;4.20;;;2.40;;
13743;SDS011;6943;52.368;9.966;2022-08-03T06:52:30;4.10;;;2.28;;
13743;SDS011;6943;52.368;9.966;2022-08-03T06:54:55;4.93;;;2.40;;
13743;SDS011;6943;52.368;9.966;2022-08-03T06:57:21;2.33;;;2.00;;
13743;SDS011;6943;52.368;9.966;2022-08-03T06:59:47;4.13;;;2.20;;
13743;SDS011;6943;52.368;9.966;2022-08-03T07:02:12;3.28;;;2.30;;
13743;SDS011;6943;52.368;9.966;2022-08-03T07:04:38;4.20;;;2.30;;
13743;SDS011;6943;52.368;9.966;2022-08-03T07:07:04;2.83;;;2.20;;
13743;SDS011;6943;52.368;9.966;2022-08-03T07:09:29;2.75;;;2.20;;
13743;SDS011;6943;52.368;9.966;2022-08-03T07:11:54;2.22;;;2.03;;
13743;SDS011;6943;52.368;9.966;2022-08-03T07:14:21;5.22;;;2.13;;
13743;SDS011;6943;52.368;9.966;2022-08-03T07:16:46;2.38;;;2.10;;
13743;SDS011;6943;52.368;9.966;2022-08-03T07:19:12;2.50;;;1.95;;
13743;SDS011;6943;52.368;9.966;2022-08-03T07:21:37;2.60;;;2.25;;
13743;SDS011;6943;52.368;9.966;2022-08-03T07:24:03;4.30;;;2.03;;
13743;SDS011;6943;52.368;9.966;2022-08-03T07:26:29;3.40;;;2.30;;
13743;SDS011;6943;52.368;9.966;2022-08-03T07:28:54;2.70;;;2.20;;
13743;SDS011;6943;52.368;9.966;2022-08-03T07:31:20;2.58;;;2.22;;
13743;SDS011;6943;52.368;9.966;2022-08-03T07:33:45;5.07;;;2.50;;
13743;SDS011;6943;52.368;9.966;2022-08-03T07:36:11;1.90;;;1.80;;
13743;SDS011;6943;52.368;9.966;2022-08-03T07:38:36;3.55;;;2.28;;
13743;SDS011;6943;52.368;9.966;2022-08-03T07:41:02;3.83;;;2.10;;
13743;SDS011;6943;52.368;9.966;2022-08-03T07:43:28;4.97;;;2.15;;
13743;SDS011;6943;52.368;9.966;2022-08-03T07:45:53;2.85;;;2.40;;
13743;SDS011;6943;52.368;9.966;2022-08-03T07:48:19;2.47;;;2.00;;
13743;SDS011;6943;52.368;9.966;2022-08-03T07:50:45;2.30;;;2.10;;
13743;SDS011;6943;52.368;9.966;2022-08-03T07:53:10;2.45;;;1.95;;
13743;SDS011;6943;52.368;9.966;2022-08-03T07:55:36;2.72;;;1.92;;
13743;SDS011;6943;52.368;9.966;2022-08-03T08:00:28;3.72;;;2.17;;
13743;SDS011;6943;52.368;9.966;2022-08-03T08:02:56;3.78;;;1.80;;
13743;SDS011;6943;52.368;9.966;2022-08-03T08:05:22;3.33;;;1.98;;
13743;SDS011;6943;52.368;9.966;2022-08-03T08:07:47;2.42;;;1.85;;
13743;SDS011;6943;52.368;9.966;2022-08-03T08:10:13;3.75;;;2.10;;
13743;SDS011;6943;52.368;9.966;2022-08-03T08:12:39;5.18;;;1.90;;
13743;SDS011;6943;52.368;9.966;2022-08-03T08:15:05;2.92;;;1.77;;
13743;SDS011;6943;52.368;9.966;2022-08-03T08:17:45;3.00;;;1.85;;
13743;SDS011;6943;52.368;9.966;2022-08-03T08:20:11;4.40;;;1.80;;
13743;SDS011;6943;52.368;9.966;2022-08-03T08:22:41;1.88;;;1.70;;
13743;SDS011;6943;52.368;9.966;2022-08-03T08:25:06;2.13;;;1.67;;
13743;SDS011;6943;52.368;9.966;2022-08-03T08:27:32;1.70;;;1.60;;
13743;SDS011;6943;52.368;9.966;2022-08-03T08:29:57;4.40;;;1.67;;
13743;SDS011;6943;52.368;9.966;2022-08-03T08:32:23;3.00;;;1.60;;
13743;SDS011;6943;52.368;9.966;2022-08-03T08:34:48;3.20;;;1.70;;
13743;SDS011;6943;52.368;9.966;2022-08-03T08:37:14;2.47;;;1.70;;
13743;SDS011;6943;52.368;9.966;2022-08-03T08:39:40;4.00;;;1.70;;
13743;SDS011;6943;52.368;9.966;2022-08-03T08:42:05;2.10;;;1.60;;
13743;SDS011;6943;52.368;9.966;2022-08-03T08:44:31;3.95;;;1.45;;
13743;SDS011;6943;52.368;9.966;2022-08-03T08:46:56;4.00;;;1.60;;
13743;SDS011;6943;52.368;9.966;2022-08-03T08:49:27;4.13;;;1.70;;
13743;SDS011;6943;52.368;9.966;2022-08-03T08:51:53;1.63;;;1.45;;
13743;SDS011;6943;52.368;9.966;2022-08-03T08:54:20;3.58;;;1.65;;
13743;SDS011;6943;52.368;9.966;2022-08-03T08:56:47;4.70;;;1.80;;
13743;SDS011;6943;52.368;9.966;2022-08-03T08:59:15;4.18;;;1.83;;
13743;SDS011;6943;52.368;9.966;2022-08-03T09:01:41;2.58;;;1.92;;
13743;SDS011;6943;52.368;9.966;2022-08-03T09:04:06;2.97;;;1.83;;
13743;SDS011;6943;52.368;9.966;2022-08-03T09:06:33;2.60;;;1.58;;
13743;SDS011;6943;52.368;9.966;2022-08-03T09:08:59;4.35;;;1.90;;
13743;SDS011;6943;52.368;9.966;2022-08-03T09:11:25;3.15;;;1.40;;
13743;SDS011;6943;52.368;9.966;2022-08-03T09:13:50;1.45;;;1.25;;
13743;SDS011;6943;52.368;9.966;2022-08-03T09:16:17;3.97;;;1.73;;
13743;SDS011;6943;52.368;9.966;2022-08-03T09:18:46;5.18;;;1.60;;
13743;SDS011;6943;52.368;9.966;2022-08-03T09:21:18;4.95;;;1.88;;
13743;SDS011;6943;52.368;9.966;2022-08-03T09:23:49;2.10;;;1.52;;
13743;SDS011;6943;52.368;9.966;2022-08-03T09:26:20;4.45;;;1.70;;
13743;SDS011;6943;52.368;9.966;2022-08-03T09:28:56;5.40;;;2.15;;
13743;SDS011;6943;52.368;9.966;2022-08-03T09:34:03;3.88;;;2.10;;
13743;SDS011;6943;52.368;9.966;2022-08-03T09:36:33;3.80;;;2.17;;
13743;SDS011;6943;52.368;9.966;2022-08-03T09:41:39;2.97;;;1.58;;
13743;SDS011;6943;52.368;9.966;2022-08-03T09:44:06;2.33;;;1.63;;
13743;SDS011;6943;52.368;9.966;2022-08-03T09:46:46;5.65;;;1.90;;
13743;SDS011;6943;52.368;9.966;2022-08-03T09:49:13;3.80;;;1.90;;
13743;SDS011;6943;52.368;9.966;2022-08-03T09:51:39;2.40;;;1.70;;
13743;SDS011;6943;52.368;9.966;2022-08-03T09:54:05;2.00;;;1.60;;
13743;SDS011;6943;52.368;9.966;2022-08-03T09:56:37;4.20;;;1.85;;
13743;SDS011;6943;52.368;9.966;2022-08-03T09:59:04;5.43;;;1.77;;
13743;SDS011;6943;52.368;9.966;2022-08-03T10:01:33;3.35;;;1.80;;
13743;SDS011;6943;52.368;9.966;2022-08-03T10:03:59;2.60;;;1.60;;
13743;SDS011;6943;52.368;9.966;2022-08-03T10:06:25;3.58;;;1.70;;
13743;SDS011;6943;52.368;9.966;2022-08-03T10:11:31;5.22;;;2.03;;
13743;SDS011;6943;52.368;9.966;2022-08-03T10:13:59;3.17;;;1.60;;
13743;SDS011;6943;52.368;9.966;2022-08-03T10:16:28;3.85;;;2.00;;
13743;SDS011;6943;52.368;9.966;2022-08-03T10:18:59;3.45;;;1.80;;
13743;SDS011;6943;52.368;9.966;2022-08-03T10:21:25;3.55;;;1.95;;
13743;SDS011;6943;52.368;9.966;2022-08-03T10:23:52;3.90;;;1.80;;
13743;SDS011;6943;52.368;9.966;2022-08-03T10:26:20;3.75;;;1.80;;
13743;SDS011;6943;52.368;9.966;2022-08-03T10:28:49;4.78;;;2.17;;
13743;SDS011;6943;52.368;9.966;2022-08-03T10:31:17;2.58;;;2.00;;
13743;SDS011;6943;52.368;9.966;2022-08-03T10:33:46;4.03;;;1.90;;
13743;SDS011;6943;52.368;9.966;2022-08-03T10:36:15;4.03;;;2.10;;
13743;SDS011;6943;52.368;9.966;2022-08-03T10:38:50;3.05;;;2.45;;
13743;SDS011;6943;52.368;9.966;2022-08-03T10:41:21;3.05;;;1.95;;
13743;SDS011;6943;52.368;9.966;2022-08-03T10:43:51;3.42;;;2.00;;
13743;SDS011;6943;52.368;9.966;2022-08-03T10:46:21;3.95;;;2.08;;
13743;SDS011;6943;52.368;9.966;2022-08-03T10:48:47;2.47;;;2.00;;
13743;SDS011;6943;52.368;9.966;2022-08-03T10:51:14;2.97;;;2.00;;
13743;SDS011;6943;52.368;9.966;2022-08-03T10:53:41;3.45;;;2.17;;
13743;SDS011;6943;52.368;9.966;2022-08-03T10:59:17;2.47;;;2.28;;
13743;SDS011;6943;52.368;9.966;2022-08-03T11:01:52;2.70;;;2.20;;
13743;SDS011;6943;52.368;9.966;2022-08-03T11:04:20;5.07;;;2.70;;
13743;SDS011;6943;52.368;9.966;2022-08-03T11:06:54;1.90;;;1.80;;
13743;SDS011;6943;52.368;9.966;2022-08-03T11:09:43;5.32;;;2.53;;
13743;SDS011;6943;52.368;9.966;2022-08-03T11:12:23;3.53;;;2.30;;
13743;SDS011;6943;52.368;9.966;2022-08-03T11:15:04;2.60;;;2.40;;
13743;SDS011;6943;52.368;9.966;2022-08-03T11:17:32;3.00;;;2.25;;
13743;SDS011;6943;52.368;9.966;2022-08-03T11:19:59;2.58;;;2.08;;
13743;SDS011;6943;52.368;9.966;2022-08-03T11:22:25;2.85;;;2.30;;
13743;SDS011;6943;52.368;9.966;2022-08-03T11:25:15;4.43;;;2.38;;
13743;SDS011;6943;52.368;9.966;2022-08-03T11:27:40;2.75;;;2.15;;
13743;SDS011;6943;52.368;9.966;2022-08-03T11:30:07;3.25;;;2.33;;
13743;SDS011;6943;52.368;9.966;2022-08-03T11:32:50;4.07;;;2.03;;
13743;SDS011;6943;52.368;9.966;2022-08-03T11:35:25;3.38;;;1.98;;
13743;SDS011;6943;52.368;9.966;2022-08-03T11:40:31;4.88;;;2.28;;
13743;SDS011;6943;52.368;9.966;2022-08-03T11:43:04;2.40;;;2.20;;
13743;SDS011;6943;52.368;9.966;2022-08-03T11:45:55;3.80;;;2.05;;
13743;SDS011;6943;52.368;9.966;2022-08-03T11:48:42;4.43;;;1.92;;
13743;SDS011;6943;52.368;9.966;2022-08-03T11:51:25;2.35;;;2.00;;
13743;SDS011;6943;52.368;9.966;2022-08-03T11:53:56;4.15;;;2.60;;
13743;SDS011;6943;52.368;9.966;2022-08-03T11:56:24;2.65;;;2.33;;
13743;SDS011;6943;52.368;9.966;2022-08-03T11:58:50;3.78;;;2.50;;
13743;SDS011;6943;52.368;9.966;2022-08-03T12:01:20;3.70;;;2.40;;
13743;SDS011;6943;52.368;9.966;2022-08-03T12:03:47;3.80;;;2.20;;
13743;SDS011;6943;52.368;9.966;2022-08-03T12:06:14;2.58;;;2.08;;
13743;SDS011;6943;52.368;9.966;2022-08-03T12:08:41;2.47;;;2.28;;
13743;SDS011;6943;52.368;9.966;2022-08-03T12:11:09;6.30;;;2.38;;
13743;SDS011;6943;52.368;9.966;2022-08-03T12:13:46;3.15;;;2.00;;
13743;SDS011;6943;52.368;9.966;2022-08-03T12:16:18;3.28;;;2.22;;
13743;SDS011;6943;52.368;9.966;2022-08-03T12:18:59;3.10;;;1.95;;
13743;SDS011;6943;52.368;9.966;2022-08-03T12:21:29;2.92;;;2.10;;
13743;SDS011;6943;52.368;9.966;2022-08-03T12:23:58;3.85;;;2.05;;
13743;SDS011;6943;52.368;9.966;2022-08-03T12:26:26;3.92;;;2.15;;
13743;SDS011;6943;52.368;9.966;2022-08-03T12:28:53;2.83;;;2.30;;
13743;SDS011;6943;52.368;9.966;2022-08-03T12:31:18;3.58;;;2.03;;
13743;SDS011;6943;52.368;9.966;2022-08-03T12:34:00;3.65;;;2.10;;
13743;SDS011;6943;52.368;9.966;2022-08-03T12:36:29;2.35;;;1.90;;
13743;SDS011;6943;52.368;9.966;2022-08-03T12:39:00;4.13;;;2.17;;
13743;SDS011;6943;52.368;9.966;2022-08-03T12:41:28;3.13;;;1.92;;
13743;SDS011;6943;52.368;9.966;2022-08-03T12:44:02;2.47;;;2.00;;
13743;SDS011;6943;52.368;9.966;2022-08-03T12:46:30;3.03;;;1.92;;
13743;SDS011;6943;52.368;9.966;2022-08-03T12:49:10;2.40;;;1.83;;
13743;SDS011;6943;52.368;9.966;2022-08-03T12:54:07;2.17;;;2.05;;
13743;SDS011;6943;52.368;9.966;2022-08-03T12:56:34;3.58;;;2.17;;
13743;SDS011;6943;52.368;9.966;2022-08-03T12:59:23;2.20;;;2.00;;
13743;SDS011;6943;52.368;9.966;2022-08-03T13:01:50;2.90;;;1.77;;
13743;SDS011;6943;52.368;9.966;2022-08-03T13:04:24;5.68;;;2.47;;
13743;SDS011;6943;52.368;9.966;2022-08-03T13:06:57;2.88;;;2.00;;
13743;SDS011;6943;52.368;9.966;2022-08-03T13:09:23;3.55;;;2.20;;
13743;SDS011;6943;52.368;9.966;2022-08-03T13:12:08;3.05;;;1.95;;
13743;SDS011;6943;52.368;9.966;2022-08-03T13:14:35;2.25;;;2.00;;
13743;SDS011;6943;52.368;9.966;2022-08-03T13:17:01;2.38;;;2.08;;
13743;SDS011;6943;52.368;9.966;2022-08-03T13:19:27;2.20;;;2.00;;
13743;SDS011;6943;52.368;9.966;2022-08-03T13:21:53;3.05;;;1.95;;
13743;SDS011;6943;52.368;9.966;2022-08-03T13:24:18;2.22;;;1.77;;
13743;SDS011;6943;52.368;9.966;2022-08-03T13:26:44;5.93;;;1.90;;
13743;SDS011;6943;52.368;9.966;2022-08-03T13:29:10;2.33;;;1.80;;
13743;SDS011;6943;52.368;9.966;2022-08-03T13:31:35;2.20;;;2.00;;
13743;SDS011;6943;52.368;9.966;2022-08-03T13:34:01;2.45;;;1.70;;
13743;SDS011;6943;52.368;9.966;2022-08-03T13:36:26;2.35;;;1.83;;
13743;SDS011;6943;52.368;9.966;2022-08-03T13:38:51;2.55;;;1.80;;
13743;SDS011;6943;52.368;9.966;2022-08-03T13:41:17;3.22;;;2.05;;
13743;SDS011;6943;52.368;9.966;2022-08-03T13:43:42;3.33;;;2.20;;
13743;SDS011;6943;52.368;9.966;2022-08-03T13:46:08;4.05;;;2.10;;
13743;SDS011;6943;52.368;9.966;2022-08-03T13:48:33;2.40;;;2.20;;
13743;SDS011;6943;52.368;9.966;2022-08-03T13:50:59;3.25;;;2.15;;
13743;SDS011;6943;52.368;9.966;2022-08-03T13:53:24;3.72;;;1.95;;
13743;SDS011;6943;52.368;9.966;2022-08-03T13:55:50;2.17;;;1.90;;
13743;SDS011;6943;52.368;9.966;2022-08-03T13:58:15;3.05;;;1.98;;
13743;SDS011;6943;52.368;9.966;2022-08-03T14:00:41;4.30;;;1.98;;
13743;SDS011;6943;52.368;9.966;2022-08-03T14:03:06;2.65;;;2.17;;
13743;SDS011;6943;52.368;9.966;2022-08-03T14:05:32;2.17;;;1.80;;
13743;SDS011;6943;52.368;9.966;2022-08-03T14:07:59;2.50;;;2.05;;
13743;SDS011;6943;52.368;9.966;2022-08-03T14:10:25;6.80;;;2.42;;
13743;SDS011;6943;52.368;9.966;2022-08-03T14:12:51;2.47;;;1.95;;
13743;SDS011;6943;52.368;9.966;2022-08-03T14:15:16;2.35;;;1.92;;
13743;SDS011;6943;52.368;9.966;2022-08-03T14:17:42;4.97;;;2.40;;
13743;SDS011;6943;52.368;9.966;2022-08-03T14:20:08;2.40;;;2.20;;
13743;SDS011;6943;52.368;9.966;2022-08-03T14:22:34;3.70;;;2.30;;
13743;SDS011;6943;52.368;9.966;2022-08-03T14:24:59;2.33;;;2.13;;
13743;SDS011;6943;52.368;9.966;2022-08-03T14:27:25;2.45;;;2.05;;
13743;SDS011;6943;52.368;9.966;2022-08-03T14:29:50;4.28;;;2.33;;
13743;SDS011;6943;52.368;9.966;2022-08-03T14:32:16;2.08;;;1.90;;
13743;SDS011;6943;52.368;9.966;2022-08-03T14:34:41;2.80;;;2.00;;
13743;SDS011;6943;52.368;9.966;2022-08-03T14:37:07;4.78;;;1.90;;
13743;SDS011;6943;52.368;9.966;2022-08-03T14:39:32;3.15;;;1.80;;
13743;SDS011;6943;52.368;9.966;2022-08-03T14:41:57;2.55;;;1.83;;
13743;SDS011;6943;52.368;9.966;2022-08-03T14:44:23;2.53;;;1.63;;
13743;SDS011;6943;52.368;9.966;2022-08-03T14:46:48;2.20;;;1.98;;
13743;SDS011;6943;52.368;9.966;2022-08-03T14:49:14;3.65;;;2.28;;
13743;SDS011;6943;52.368;9.966;2022-08-03T14:51:39;4.20;;;1.77;;
13743;SDS011;6943;52.368;9.966;2022-08-03T14:54:05;5.97;;;2.20;;
13743;SDS011;6943;52.368;9.966;2022-08-03T14:56:30;3.08;;;2.05;;
13743;SDS011;6943;52.368;9.966;2022-08-03T14:58:57;2.53;;;2.28;;
13743;SDS011;6943;52.368;9.966;2022-08-03T15:01:22;2.58;;;2.30;;
13743;SDS011;6943;52.368;9.966;2022-08-03T15:03:48;2.38;;;2.17;;
13743;SDS011;6943;52.368;9.966;2022-08-03T15:06:13;4.75;;;2.30;;
13743;SDS011;6943;52.368;9.966;2022-08-03T15:08:39;2.72;;;2.10;;
13743;SDS011;6943;52.368;9.966;2022-08-03T15:11:04;3.10;;;2.38;;
13743;SDS011;6943;52.368;9.966;2022-08-03T15:13:29;3.38;;;1.70;;
13743;SDS011;6943;52.368;9.966;2022-08-03T15:15:55;3.35;;;2.30;;
13743;SDS011;6943;52.368;9.966;2022-08-03T15:18:21;5.00;;;2.15;;
13743;SDS011;6943;52.368;9.966;2022-08-03T15:20:47;6.00;;;2.15;;
13743;SDS011;6943;52.368;9.966;2022-08-03T15:23:14;2.00;;;1.75;;
13743;SDS011;6943;52.368;9.966;2022-08-03T15:25:41;2.42;;;2.00;;
13743;SDS011;6943;52.368;9.966;2022-08-03T15:28:07;4.30;;;2.15;;
13743;SDS011;6943;52.368;9.966;2022-08-03T15:30:33;2.20;;;2.00;;
13743;SDS011;6943;52.368;9.966;2022-08-03T15:33:00;2.88;;;2.35;;
13743;SDS011;6943;52.368;9.966;2022-08-03T15:35:26;3.72;;;2.40;;
13743;SDS011;6943;52.368;9.966;2022-08-03T15:37:52;2.47;;;2.28;;
13743;SDS011;6943;52.368;9.966;2022-08-03T15:40:18;3.33;;;2.20;;